createdAt,value
2023-05-24T00:01:31.651Z,4.88
2023-05-24T00:04:01.502Z,3.78
2023-05-24T00:06:30.110Z,4.20
2023-05-24T00:08:58.419Z,4.45
2023-05-24T00:11:27.722Z,4.20
2023-05-24T00:13:56.059Z,4.35
2023-05-24T00:16:24.470Z,4.68
2023-05-24T00:18:52.796Z,4.00
2023-05-24T00:21:22.504Z,4.10
2023-05-24T00:23:51.898Z,3.97
2023-05-24T00:26:20.428Z,4.68
2023-05-24T00:28:48.760Z,3.97
2023-05-24T00:31:17.323Z,4.53
2023-05-24T00:33:45.654Z,4.38
2023-05-24T00:36:13.938Z,4.18
2023-05-24T00:38:43.681Z,3.75
2023-05-24T00:41:12.159Z,4.32
2023-05-24T00:43:43.237Z,4.00
2023-05-24T00:46:16.263Z,4.22
2023-05-24T00:48:44.765Z,4.22
2023-05-24T00:51:14.106Z,3.97
2023-05-24T00:53:44.936Z,4.28
2023-05-24T00:56:14.321Z,3.95
2023-05-24T00:58:43.117Z,3.40
2023-05-24T01:01:11.783Z,4.10
2023-05-24T01:03:41.636Z,4.00
2023-05-24T01:06:10.358Z,3.80
2023-05-24T01:08:49.918Z,3.70
2023-05-24T01:11:23.349Z,3.60
2023-05-24T01:13:56.542Z,3.72
2023-05-24T01:16:26.741Z,3.65
2023-05-24T01:18:56.761Z,3.90
2023-05-24T01:21:38.861Z,4.00
2023-05-24T01:24:16.102Z,3.65
2023-05-24T01:26:47.770Z,3.47
2023-05-24T01:29:18.023Z,3.75
2023-05-24T01:31:46.754Z,3.75
2023-05-24T01:34:15.232Z,3.72
2023-05-24T01:36:43.570Z,3.28
2023-05-24T01:39:12.058Z,3.20
2023-05-24T01:41:42.166Z,3.30
2023-05-24T01:44:15.562Z,3.22
2023-05-24T01:46:52.233Z,3.50
2023-05-24T01:49:24.147Z,3.47
2023-05-24T01:51:55.886Z,3.78
2023-05-24T01:54:25.912Z,3.20
2023-05-24T01:56:55.034Z,3.30
2023-05-24T01:59:24.416Z,3.55
2023-05-24T02:01:54.139Z,3.58
2023-05-24T02:04:22.613Z,3.40
2023-05-24T02:06:51.022Z,3.28
2023-05-24T02:09:19.398Z,3.85
2023-05-24T02:11:47.734Z,3.60
2023-05-24T02:14:17.374Z,3.85
2023-05-24T02:16:46.721Z,3.42
2023-05-24T02:19:17.276Z,3.72
2023-05-24T02:21:45.839Z,3.42
2023-05-24T02:24:15.020Z,3.38
2023-05-24T02:26:43.411Z,3.40
2023-05-24T02:29:11.776Z,3.33
2023-05-24T02:31:40.190Z,3.63
2023-05-24T02:34:08.566Z,3.58
2023-05-24T02:36:38.293Z,3.25
2023-05-24T02:39:06.647Z,3.35
2023-05-24T02:41:34.975Z,3.95
2023-05-24T02:44:03.318Z,3.70
2023-05-24T02:46:31.744Z,3.40
2023-05-24T02:49:00.082Z,4.03
2023-05-24T02:51:28.426Z,3.65
2023-05-24T02:53:58.098Z,3.70
2023-05-24T02:56:26.864Z,3.63
2023-05-24T02:58:55.718Z,3.15
2023-05-24T03:01:24.148Z,3.50
2023-05-24T03:03:52.793Z,3.50
2023-05-24T03:06:21.249Z,3.38
2023-05-24T03:08:50.041Z,3.47
2023-05-24T03:11:22.150Z,3.28
2023-05-24T03:13:50.771Z,3.13
2023-05-24T03:16:19.729Z,3.55
2023-05-24T03:18:50.650Z,3.22
2023-05-24T03:21:20.706Z,3.72
2023-05-24T03:23:49.380Z,3.40
2023-05-24T03:26:18.682Z,4.05
2023-05-24T03:28:50.577Z,4.45
2023-05-24T03:31:20.865Z,3.92
2023-05-24T03:33:49.294Z,3.40
2023-05-24T03:36:17.576Z,4.20
2023-05-24T03:38:45.879Z,3.38
2023-05-24T03:41:14.155Z,3.67
2023-05-24T03:43:42.404Z,3.33
2023-05-24T03:46:12.052Z,3.40
2023-05-24T03:48:40.325Z,3.95
2023-05-24T03:51:09.297Z,3.60
2023-05-24T03:53:37.976Z,3.28
2023-05-24T03:56:06.485Z,4.05
2023-05-24T03:58:34.901Z,3.50
2023-05-24T04:01:03.568Z,3.88
2023-05-24T04:03:34.386Z,4.32
2023-05-24T04:06:02.856Z,3.90
2023-05-24T04:08:31.469Z,3.58
2023-05-24T04:10:59.777Z,4.72
2023-05-24T04:13:28.019Z,4.22
2023-05-24T04:15:56.294Z,3.90
2023-05-24T04:18:24.638Z,3.50
2023-05-24T04:20:54.364Z,4.07
2023-05-24T04:23:22.620Z,3.67
2023-05-24T04:25:51.076Z,3.45
2023-05-24T04:28:22.474Z,3.40
2023-05-24T04:30:50.715Z,3.40
2023-05-24T04:33:19.186Z,3.30
2023-05-24T04:35:47.768Z,3.45
2023-05-24T04:38:17.693Z,3.30
2023-05-24T04:40:45.962Z,3.30
2023-05-24T04:43:14.629Z,3.45
2023-05-24T04:45:42.924Z,3.00
2023-05-24T04:48:11.246Z,3.28
2023-05-24T04:50:40.210Z,3.22
2023-05-24T04:53:08.673Z,3.53
2023-05-24T04:55:38.271Z,3.17
2023-05-24T04:58:06.522Z,3.20
2023-05-24T05:00:38.400Z,3.30
2023-05-24T05:03:06.821Z,3.97
2023-05-24T05:05:35.068Z,2.70
2023-05-24T05:08:03.738Z,3.00
2023-05-24T05:10:32.165Z,3.90
2023-05-24T05:13:01.881Z,2.92
2023-05-24T05:15:30.768Z,3.50
2023-05-24T05:17:59.087Z,3.90
2023-05-24T05:20:27.526Z,3.17
2023-05-24T05:22:55.930Z,3.28
2023-05-24T05:25:24.219Z,3.15
2023-05-24T05:27:52.458Z,3.30
2023-05-24T05:30:22.132Z,3.45
2023-05-24T05:32:50.496Z,3.30
2023-05-24T05:35:18.934Z,4.10
2023-05-24T05:37:47.185Z,3.40
2023-05-24T05:40:15.474Z,3.80
2023-05-24T05:42:43.721Z,3.75
2023-05-24T05:45:12.432Z,3.58
2023-05-24T05:47:43.156Z,3.88
2023-05-24T05:50:11.699Z,2.95
2023-05-24T05:52:40.059Z,3.40
2023-05-24T05:55:09.030Z,3.00
2023-05-24T05:57:37.301Z,2.83
2023-05-24T06:00:05.991Z,3.47
2023-05-24T06:02:34.402Z,3.10
2023-05-24T06:05:04.085Z,3.00
2023-05-24T06:07:32.338Z,3.10
2023-05-24T06:10:00.664Z,3.53
2023-05-24T06:12:28.935Z,3.28
2023-05-24T06:14:57.636Z,3.20
2023-05-24T06:17:26.061Z,2.88
2023-05-24T06:19:55.873Z,2.95
2023-05-24T06:22:25.539Z,2.60
2023-05-24T06:24:53.772Z,2.97
2023-05-24T06:27:22.062Z,3.35
2023-05-24T06:29:50.349Z,3.10
2023-05-24T06:32:18.910Z,2.30
2023-05-24T06:34:47.179Z,2.90
2023-05-24T06:37:15.709Z,2.45
2023-05-24T06:39:45.529Z,2.38
2023-05-24T06:42:13.828Z,2.90
2023-05-24T06:44:42.064Z,2.97
2023-05-24T06:47:10.459Z,2.60
2023-05-24T06:49:39.056Z,3.25
2023-05-24T06:52:08.407Z,3.38
2023-05-24T06:54:37.208Z,2.72
2023-05-24T06:57:07.168Z,2.75
2023-05-24T06:59:35.443Z,3.58
2023-05-24T07:02:04.554Z,2.05
2023-05-24T07:04:33.430Z,2.90
2023-05-24T07:07:02.299Z,2.53
2023-05-24T07:09:30.624Z,2.70
2023-05-24T07:11:59.013Z,2.83
2023-05-24T07:14:29.411Z,2.08
2023-05-24T07:16:59.870Z,3.05
2023-05-24T07:19:29.565Z,3.22
2023-05-24T07:21:58.224Z,2.50
2023-05-24T07:24:26.769Z,2.20
2023-05-24T07:26:56.710Z,3.10
2023-05-24T07:29:25.984Z,2.40
2023-05-24T07:31:56.681Z,2.50
2023-05-24T07:34:27.695Z,2.17
2023-05-24T07:36:56.663Z,2.67
2023-05-24T07:39:25.347Z,2.83
2023-05-24T07:41:53.922Z,2.58
2023-05-24T07:44:22.374Z,2.58
2023-05-24T07:46:51.088Z,2.83
2023-05-24T07:49:22.209Z,2.25
2023-05-24T07:51:50.658Z,2.10
2023-05-24T07:54:18.986Z,2.03
2023-05-24T07:56:47.391Z,2.25
2023-05-24T07:59:15.973Z,1.90
2023-05-24T08:01:44.638Z,2.08
2023-05-24T08:04:13.326Z,2.47
2023-05-24T08:06:43.094Z,2.10
2023-05-24T08:09:12.334Z,2.03
2023-05-24T08:11:41.836Z,2.85
2023-05-24T08:14:10.102Z,2.17
2023-05-24T08:16:38.441Z,2.30
2023-05-24T08:19:06.831Z,2.55
2023-05-24T08:21:35.107Z,2.10
2023-05-24T08:24:06.842Z,2.42
2023-05-24T08:26:38.093Z,1.95
2023-05-24T08:29:06.425Z,2.35
2023-05-24T08:31:38.304Z,2.20
2023-05-24T08:34:06.937Z,2.47
2023-05-24T08:36:35.189Z,2.72
2023-05-24T08:39:05.109Z,2.42
2023-05-24T08:41:37.403Z,2.80
2023-05-24T08:44:07.189Z,2.55
2023-05-24T08:46:36.321Z,2.28
2023-05-24T08:49:05.138Z,2.25
2023-05-24T08:51:33.788Z,2.20
2023-05-24T08:54:02.326Z,2.50
2023-05-24T08:56:32.489Z,2.38
2023-05-24T08:59:00.765Z,2.45
2023-05-24T09:01:31.007Z,2.75
2023-05-24T09:04:01.527Z,2.25
2023-05-24T09:06:29.819Z,2.50
2023-05-24T09:08:58.433Z,2.53
2023-05-24T09:11:27.109Z,2.20
2023-05-24T09:13:57.929Z,2.13
2023-05-24T09:16:26.465Z,2.15
2023-05-24T09:18:54.753Z,2.13
2023-05-24T09:21:23.711Z,2.13
2023-05-24T09:23:52.244Z,2.25
2023-05-24T09:26:20.574Z,2.28
2023-05-24T09:28:50.749Z,2.20
2023-05-24T09:31:20.524Z,2.45
2023-05-24T09:33:50.881Z,2.05
2023-05-24T09:36:22.344Z,3.22
2023-05-24T09:39:03.955Z,2.15
2023-05-24T09:41:32.706Z,2.20
2023-05-24T09:44:01.118Z,2.15
2023-05-24T09:46:31.241Z,2.15
2023-05-24T09:48:59.970Z,2.28
2023-05-24T09:51:28.566Z,2.45
2023-05-24T09:53:59.022Z,2.03
2023-05-24T09:56:28.131Z,1.73
2023-05-24T09:58:57.065Z,2.00
2023-05-24T10:01:26.953Z,2.00
2023-05-24T10:03:57.641Z,1.90
2023-05-24T10:06:28.689Z,2.35
2023-05-24T10:08:58.028Z,2.28
2023-05-24T10:11:26.736Z,2.47
2023-05-24T10:13:55.329Z,1.63
2023-05-24T10:16:23.691Z,2.28
2023-05-24T10:18:52.009Z,1.92
2023-05-24T10:21:23.731Z,2.10
2023-05-24T10:23:53.637Z,2.70
2023-05-24T10:26:26.111Z,2.10
2023-05-24T10:28:57.435Z,1.85
2023-05-24T10:31:27.048Z,2.03
2023-05-24T10:34:06.653Z,2.30
2023-05-24T10:36:40.452Z,2.35
2023-05-24T10:39:11.171Z,2.30
2023-05-24T10:41:43.535Z,1.88
2023-05-24T10:44:16.331Z,2.13
2023-05-24T10:47:08.753Z,2.38
2023-05-24T10:49:37.214Z,2.40
2023-05-24T10:52:10.475Z,2.50
2023-05-24T10:54:42.904Z,2.90
2023-05-24T10:57:15.421Z,2.40
2023-05-24T10:59:45.437Z,2.70
2023-05-24T11:02:16.480Z,2.55
2023-05-24T11:04:47.772Z,2.30
2023-05-24T11:07:18.252Z,2.85
2023-05-24T11:09:53.270Z,2.40
2023-05-24T11:12:21.825Z,2.25
2023-05-24T11:14:51.414Z,2.78
2023-05-24T11:17:21.118Z,1.98
2023-05-24T11:19:52.266Z,2.20
2023-05-24T11:22:22.864Z,2.15
2023-05-24T11:24:51.745Z,2.10
2023-05-24T11:27:20.053Z,2.35
2023-05-24T11:29:58.149Z,2.55
2023-05-24T11:32:27.250Z,2.00
2023-05-24T11:34:56.262Z,2.38
2023-05-24T11:37:38.635Z,2.22
2023-05-24T11:40:15.156Z,1.95
2023-05-24T11:42:44.393Z,2.33
2023-05-24T11:45:13.968Z,2.50
2023-05-24T11:47:42.252Z,2.83
2023-05-24T11:50:10.893Z,2.30
2023-05-24T11:52:42.109Z,3.35
2023-05-24T11:55:16.592Z,2.85
2023-05-24T11:57:48.295Z,2.33
2023-05-24T12:00:17.433Z,2.72
2023-05-24T12:02:46.791Z,2.83
2023-05-24T12:05:15.335Z,2.22
2023-05-24T12:07:48.843Z,2.35
2023-05-24T12:10:17.266Z,2.28
2023-05-24T12:12:46.315Z,2.40
2023-05-24T12:15:14.924Z,2.38
2023-05-24T12:17:43.332Z,2.20
2023-05-24T12:20:12.312Z,2.50
2023-05-24T12:22:40.680Z,2.17
2023-05-24T12:25:10.986Z,1.80
2023-05-24T12:27:47.853Z,2.58
2023-05-24T12:30:20.779Z,2.40
2023-05-24T12:32:49.373Z,2.55
2023-05-24T12:35:20.576Z,2.15
2023-05-24T12:37:49.331Z,2.15
2023-05-24T12:40:20.801Z,2.25
2023-05-24T12:42:55.215Z,2.20
2023-05-24T12:45:25.744Z,2.25
2023-05-24T12:47:54.306Z,2.25
2023-05-24T12:50:23.390Z,2.15
2023-05-24T12:52:53.174Z,1.83
2023-05-24T12:55:24.065Z,2.30
2023-05-24T12:57:54.454Z,2.30
2023-05-24T13:00:23.521Z,2.50
2023-05-24T13:02:53.070Z,2.47
2023-05-24T13:05:21.642Z,2.20
2023-05-24T13:07:49.985Z,2.15
2023-05-24T13:10:19.440Z,1.58
2023-05-24T13:12:49.095Z,1.60
2023-05-24T13:15:19.445Z,2.38
2023-05-24T13:17:48.006Z,2.00
2023-05-24T13:20:18.769Z,2.15
2023-05-24T13:22:47.086Z,2.03
2023-05-24T13:25:15.669Z,2.25
2023-05-24T13:27:43.957Z,2.22
2023-05-24T13:30:14.309Z,1.98
2023-05-24T13:32:42.620Z,2.22
2023-05-24T13:35:11.420Z,2.22
2023-05-24T13:37:39.790Z,2.08
2023-05-24T13:40:08.956Z,2.05
2023-05-24T13:42:37.361Z,2.55
2023-05-24T13:45:06.124Z,2.40
2023-05-24T13:47:40.395Z,2.35
2023-05-24T13:50:09.993Z,2.33
2023-05-24T13:52:38.284Z,2.40
2023-05-24T13:55:07.170Z,2.63
2023-05-24T13:57:50.492Z,2.70
2023-05-24T14:00:20.423Z,2.30
2023-05-24T14:02:50.292Z,2.45
2023-05-24T14:05:27.458Z,2.22
2023-05-24T14:07:57.473Z,2.08
2023-05-24T14:10:26.062Z,2.10
2023-05-24T14:13:12.025Z,2.20
2023-05-24T14:15:44.933Z,2.10
2023-05-24T14:18:14.804Z,1.90
2023-05-24T14:20:44.827Z,2.42
2023-05-24T14:23:13.213Z,1.85
2023-05-24T14:25:42.535Z,2.10
2023-05-24T14:28:11.239Z,2.22
2023-05-24T14:30:40.067Z,2.47
2023-05-24T14:33:08.725Z,2.10
2023-05-24T14:35:40.131Z,1.90
2023-05-24T14:38:09.380Z,2.13
2023-05-24T14:40:39.706Z,2.80
2023-05-24T14:43:10.340Z,2.17
2023-05-24T14:45:41.415Z,2.30
2023-05-24T14:48:11.464Z,2.53
2023-05-24T14:50:41.891Z,2.20
2023-05-24T14:53:12.407Z,2.03
2023-05-24T14:55:42.897Z,1.98
2023-05-24T14:58:12.662Z,1.98
2023-05-24T15:00:42.048Z,2.08
2023-05-24T15:03:12.551Z,1.88
2023-05-24T15:05:49.364Z,1.90
2023-05-24T15:08:17.649Z,2.50
2023-05-24T15:10:46.660Z,2.58
2023-05-24T15:13:15.039Z,2.30
2023-05-24T15:15:46.406Z,2.20
2023-05-24T15:18:14.789Z,2.40
2023-05-24T15:20:45.016Z,1.98
2023-05-24T15:23:13.489Z,2.33
2023-05-24T15:25:42.858Z,2.20
2023-05-24T15:28:12.931Z,2.13
2023-05-24T15:30:44.260Z,2.30
2023-05-24T15:33:12.859Z,2.47
2023-05-24T15:35:41.194Z,2.50
2023-05-24T15:38:11.016Z,2.65
2023-05-24T15:40:42.046Z,2.45
2023-05-24T15:43:10.515Z,2.20
2023-05-24T15:45:38.798Z,2.22
2023-05-24T15:48:07.187Z,2.10
2023-05-24T15:50:54.047Z,2.72
2023-05-24T15:53:25.790Z,2.38
2023-05-24T15:55:56.691Z,2.13
2023-05-24T15:58:24.961Z,3.05
2023-05-24T16:00:54.434Z,1.90
2023-05-24T16:03:22.765Z,2.53
2023-05-24T16:05:51.509Z,2.20
2023-05-24T16:08:23.273Z,2.50
2023-05-24T16:10:52.927Z,2.00
2023-05-24T16:13:21.691Z,2.08
2023-05-24T16:15:51.578Z,2.15
2023-05-24T16:18:21.510Z,2.20
2023-05-24T16:20:50.922Z,2.40
2023-05-24T16:23:19.522Z,2.47
2023-05-24T16:25:47.798Z,2.28
2023-05-24T16:28:17.632Z,2.00
2023-05-24T16:30:46.294Z,2.33
2023-05-24T16:33:14.657Z,2.97
2023-05-24T16:35:43.074Z,2.20
2023-05-24T16:38:11.368Z,2.10
2023-05-24T16:40:41.840Z,2.15
2023-05-24T16:43:10.362Z,2.25
2023-05-24T16:45:39.957Z,2.65
2023-05-24T16:48:08.291Z,2.65
2023-05-24T16:50:36.697Z,2.28
2023-05-24T16:53:06.630Z,2.30
2023-05-24T16:55:35.190Z,2.17
2023-05-24T16:58:03.498Z,2.72
2023-05-24T17:00:31.818Z,1.98
2023-05-24T17:03:01.717Z,2.95
2023-05-24T17:05:30.143Z,2.72
2023-05-24T17:07:58.687Z,2.45
2023-05-24T17:10:27.025Z,2.45
2023-05-24T17:12:55.709Z,2.58
2023-05-24T17:15:24.231Z,2.20
2023-05-24T17:17:52.816Z,2.75
2023-05-24T17:20:22.563Z,2.10
2023-05-24T17:22:51.092Z,1.85
2023-05-24T17:25:19.487Z,2.65
2023-05-24T17:27:47.742Z,2.20
2023-05-24T17:30:16.064Z,2.13
2023-05-24T17:32:44.415Z,2.88
2023-05-24T17:35:12.725Z,2.45
2023-05-24T17:37:42.353Z,2.15
2023-05-24T17:40:11.523Z,2.60
2023-05-24T17:42:42.169Z,2.75
2023-05-24T17:45:14.285Z,2.88
2023-05-24T17:47:43.004Z,2.78
2023-05-24T17:50:11.761Z,2.60
2023-05-24T17:52:40.069Z,2.20
2023-05-24T17:55:10.975Z,2.72
2023-05-24T17:57:39.222Z,2.38
2023-05-24T18:00:08.283Z,2.72
2023-05-24T18:02:36.787Z,2.72
2023-05-24T18:05:05.138Z,2.60
2023-05-24T18:07:33.474Z,2.65
2023-05-24T18:10:01.741Z,2.83
2023-05-24T18:12:31.606Z,2.72
2023-05-24T18:14:59.995Z,2.50
2023-05-24T18:17:28.444Z,2.35
2023-05-24T18:19:56.973Z,3.20
2023-05-24T18:22:25.276Z,2.33
2023-05-24T18:24:53.573Z,2.80
2023-05-24T18:27:21.854Z,2.70
2023-05-24T18:29:51.730Z,2.70
2023-05-24T18:32:20.094Z,2.92
2023-05-24T18:34:48.390Z,2.67
2023-05-24T18:37:16.697Z,2.65
2023-05-24T18:39:45.045Z,2.70
2023-05-24T18:42:13.594Z,2.65
2023-05-24T18:44:41.918Z,2.88
2023-05-24T18:47:12.513Z,2.50
2023-05-24T18:49:42.310Z,3.22
2023-05-24T18:52:10.658Z,3.05
2023-05-24T18:54:39.112Z,3.53
2023-05-24T18:57:07.709Z,2.53
2023-05-24T18:59:38.075Z,3.28
2023-05-24T19:02:06.785Z,2.75
2023-05-24T19:04:36.449Z,2.70
2023-05-24T19:07:04.809Z,2.78
2023-05-24T19:09:33.853Z,2.42
2023-05-24T19:12:04.536Z,2.92
2023-05-24T19:14:32.851Z,2.60
2023-05-24T19:17:01.433Z,2.40
2023-05-24T19:19:30.708Z,3.08
2023-05-24T19:22:00.975Z,2.50
2023-05-24T19:24:29.356Z,3.28
2023-05-24T19:26:57.693Z,2.58
2023-05-24T19:29:26.558Z,2.97
2023-05-24T19:31:55.358Z,2.80
2023-05-24T19:34:23.764Z,3.58
2023-05-24T19:36:52.051Z,2.80
2023-05-24T19:39:21.666Z,3.08
2023-05-24T19:41:49.976Z,3.10
2023-05-24T19:44:18.294Z,2.75
2023-05-24T19:46:46.548Z,2.60
2023-05-24T19:49:14.822Z,3.03
2023-05-24T19:51:43.197Z,2.60
2023-05-24T19:54:12.683Z,2.45
2023-05-24T19:56:42.394Z,2.67
2023-05-24T19:59:10.662Z,3.33
2023-05-24T20:01:39.148Z,3.22
2023-05-24T20:04:07.657Z,2.90
2023-05-24T20:06:36.800Z,2.88
2023-05-24T20:09:05.238Z,2.65
2023-05-24T20:11:33.533Z,2.35
2023-05-24T20:14:03.212Z,2.53
2023-05-24T20:16:31.835Z,2.55
2023-05-24T20:19:00.192Z,2.45
2023-05-24T20:21:28.588Z,2.25
2023-05-24T20:23:58.721Z,2.92
2023-05-24T20:26:27.485Z,2.92
2023-05-24T20:28:55.821Z,2.80
2023-05-24T20:31:25.756Z,2.97
2023-05-24T20:33:54.095Z,2.83
2023-05-24T20:36:23.134Z,3.22
2023-05-24T20:38:51.430Z,2.90
2023-05-24T20:41:24.936Z,2.97
2023-05-24T20:43:56.276Z,2.97
2023-05-24T20:46:26.486Z,2.85
2023-05-24T20:48:57.161Z,2.70
2023-05-24T20:51:25.640Z,3.40
2023-05-24T20:53:55.593Z,2.80
2023-05-24T20:56:26.939Z,3.03
2023-05-24T20:58:56.608Z,2.70
2023-05-24T21:01:29.665Z,3.00
2023-05-24T21:03:58.014Z,3.45
2023-05-24T21:06:33.765Z,2.88
2023-05-24T21:09:02.483Z,3.08
2023-05-24T21:11:31.440Z,2.80
2023-05-24T21:13:59.741Z,2.83
2023-05-24T21:16:29.422Z,2.90
2023-05-24T21:18:58.024Z,2.72
2023-05-24T21:21:26.316Z,3.47
2023-05-24T21:23:55.634Z,2.55
2023-05-24T21:26:24.013Z,2.97
2023-05-24T21:28:52.371Z,2.50
2023-05-24T21:31:21.687Z,3.63
2023-05-24T21:33:51.404Z,2.97
2023-05-24T21:36:19.765Z,2.85
2023-05-24T21:38:48.549Z,3.00
2023-05-24T21:41:16.842Z,2.35
2023-05-24T21:43:45.240Z,2.85
2023-05-24T21:46:13.495Z,2.80
2023-05-24T21:48:42.182Z,3.40
2023-05-24T21:51:11.872Z,2.80
2023-05-24T21:53:40.240Z,3.25
2023-05-24T21:56:08.569Z,3.15
2023-05-24T21:58:36.813Z,2.83
2023-05-24T22:01:05.097Z,3.10
2023-05-24T22:03:33.477Z,2.90
2023-05-24T22:06:01.962Z,2.97
2023-05-24T22:08:31.668Z,3.55
2023-05-24T22:10:59.937Z,3.10
2023-05-24T22:13:28.199Z,2.88
2023-05-24T22:15:56.715Z,2.70
2023-05-24T22:18:28.282Z,3.15
2023-05-24T22:20:58.253Z,2.83
2023-05-24T22:23:26.799Z,3.45
2023-05-24T22:25:56.577Z,3.00
2023-05-24T22:28:26.041Z,2.80
2023-05-24T22:30:54.337Z,3.15
2023-05-24T22:33:25.461Z,2.67
2023-05-24T22:35:53.734Z,2.80
2023-05-24T22:38:22.041Z,3.40
2023-05-24T22:40:50.295Z,3.28
2023-05-24T22:43:19.905Z,3.25
2023-05-24T22:45:48.220Z,3.53
2023-05-24T22:48:17.990Z,3.05
2023-05-24T22:50:46.760Z,3.10
2023-05-24T22:53:17.177Z,3.13
2023-05-24T22:55:45.734Z,3.10
2023-05-24T22:58:15.622Z,3.30
2023-05-24T23:00:45.342Z,3.42
2023-05-24T23:03:13.737Z,3.15
2023-05-24T23:05:42.295Z,3.90
2023-05-24T23:08:13.030Z,3.10
2023-05-24T23:10:45.676Z,3.88
2023-05-24T23:13:14.380Z,3.83
2023-05-24T23:15:48.462Z,3.53
2023-05-24T23:18:16.932Z,3.05
2023-05-24T23:20:45.308Z,3.28
2023-05-24T23:23:13.731Z,3.13
2023-05-24T23:25:43.396Z,3.22
2023-05-24T23:28:12.006Z,3.40
2023-05-24T23:30:41.450Z,3.47
2023-05-24T23:33:11.412Z,2.92
2023-05-24T23:35:40.638Z,3.75
2023-05-24T23:38:09.088Z,3.63
2023-05-24T23:40:37.596Z,3.03
2023-05-24T23:43:06.031Z,3.20
2023-05-24T23:45:34.409Z,3.63
2023-05-24T23:48:03.070Z,3.53
2023-05-24T23:50:37.454Z,3.42
2023-05-24T23:53:11.358Z,3.15
2023-05-24T23:55:40.701Z,3.53
2023-05-24T23:58:09.139Z,3.42
